Turkey Ridge, South Dakota
Current Conditions -  °F | °C
As of 10:15 PM on Wednesday 26 Nov 2014 (Local Time) from KYKN Reporting Station
Broken Clouds Broken Clouds  
Wind Chill:   Ceiling: 7000
Heat Index: 12°   Visibility: 10mi
Dew Point:   Wind: 8mph
Humidity: 67%   Direction: 310°NW
Pressure: 30.47"   Gusts: NA
Location:  43.2923°N, 97.2262°W
Report Text: KYKN 270415Z AUTO 31007KT 10SM BKN070 M11/M16 A3047 RMK AO1
Loading
Personal Weather Stations






























Interactive Weather Map New forecast layout! Learn more

10-Day Weather Forecast

Advertisements
Track Severe Weather on mobile